Neville, Ohio
Current Conditions -  °F | °C
As of 6:53 PM on Friday 21 Nov 2014 (Local Time) from KLUK Reporting Station
Clear Clear  
Wind Chill: 26°   Ceiling: Unl
Heat Index: 26°   Visibility: 10mi
Dew Point: 13°   Wind: 0mph
Humidity: 58%   Direction: NA
Pressure: 30.48"   Gusts: NA
Location:  38.81°N, 84.21°W
Report Text: KLUK 212353Z 00000KT 10SM CLR M03/M11 A3048 RMK AO2 SLP328 T10331106 10017 21039 56005
Loading
Personal Weather Stations






























Interactive Weather Map New forecast layout! Learn more

10-Day Weather Forecast

Advertisements
Track Severe Weather on mobile